<?xml version="1.0" encoding="UTF-8" standalone="no" ?>
<gpx xmlns="http://www.topografix.com/GPX/1/1" xmlns:xsi="http://www.w3.org/2001/XMLSchema-instance" xsi:schemaLocation="http://www.topografix.com/GPX/1/1 http://www.topografix.com/GPX/1/1/gpx.xsd" version="1.1" creator="VisuGPX - https://www.visugpx.com">
  <metadata>
    <name>Les Becheres - Col de la Luere (69)</name>
    <desc><![CDATA[Parcours des Becheres - Col de la Luere (69)]]></desc>
  </metadata>
  <trk>
    <name><![CDATA[Les Becheres - Col de la Luere (69)_1]]></name>
    <trkseg>
      <trkpt lat="45.7621" lon="4.63215">
        <ele>710.55</ele>
        <time>2021-04-08T08:45:09Z</time>
      </trkpt>
      <trkpt lat="45.76211" lon="4.63232">
        <ele>710.55</ele>
        <time>2021-04-08T08:45:21Z</time>
      </trkpt>
      <trkpt lat="45.76215" lon="4.63251">
        <ele>710.07</ele>
        <time>2021-04-08T08:45:26Z</time>
      </trkpt>
      <trkpt lat="45.76219" lon="4.63258">
        <ele>710.07</ele>
        <time>2021-04-08T08:45:28Z</time>
      </trkpt>
      <trkpt lat="45.7622" lon="4.63262">
        <ele>709.59</ele>
        <time>2021-04-08T08:45:29Z</time>
      </trkpt>
      <trkpt lat="45.76225" lon="4.63283">
        <ele>709.11</ele>
        <time>2021-04-08T08:45:33Z</time>
      </trkpt>
      <trkpt lat="45.76225" lon="4.63288">
        <ele>709.11</ele>
        <time>2021-04-08T08:45:34Z</time>
      </trkpt>
      <trkpt lat="45.76225" lon="4.63291">
        <ele>709.11</ele>
        <time>2021-04-08T08:45:35Z</time>
      </trkpt>
      <trkpt lat="45.76224" lon="4.63296">
        <ele>708.63</ele>
        <time>2021-04-08T08:45:37Z</time>
      </trkpt>
      <trkpt lat="45.76223" lon="4.63301">
        <ele>708.63</ele>
        <time>2021-04-08T08:45:38Z</time>
      </trkpt>
      <trkpt lat="45.76223" lon="4.63306">
        <ele>708.63</ele>
        <time>2021-04-08T08:45:39Z</time>
      </trkpt>
      <trkpt lat="45.76223" lon="4.63309">
        <ele>708.63</ele>
        <time>2021-04-08T08:45:40Z</time>
      </trkpt>
      <trkpt lat="45.76222" lon="4.63316">
        <ele>707.19</ele>
        <time>2021-04-08T08:45:44Z</time>
      </trkpt>
      <trkpt lat="45.7622" lon="4.63337">
        <ele>706.23</ele>
        <time>2021-04-08T08:45:51Z</time>
      </trkpt>
      <trkpt lat="45.7622" lon="4.63344">
        <ele>706.23</ele>
        <time>2021-04-08T08:45:52Z</time>
      </trkpt>
      <trkpt lat="45.76219" lon="4.6335">
        <ele>706.23</ele>
        <time>2021-04-08T08:45:53Z</time>
      </trkpt>
      <trkpt lat="45.7622" lon="4.63364">
        <ele>703.82</ele>
        <time>2021-04-08T08:46:00Z</time>
      </trkpt>
      <trkpt lat="45.76221" lon="4.63376">
        <ele>699.5</ele>
        <time>2021-04-08T08:46:35Z</time>
      </trkpt>
      <trkpt lat="45.76221" lon="4.6339">
        <ele>699.5</ele>
        <time>2021-04-08T08:46:37Z</time>
      </trkpt>
      <trkpt lat="45.76219" lon="4.634">
        <ele>699.5</ele>
        <time>2021-04-08T08:46:38Z</time>
      </trkpt>
      <trkpt lat="45.76214" lon="4.63434">
        <ele>699.02</ele>
        <time>2021-04-08T08:46:41Z</time>
      </trkpt>
      <trkpt lat="45.76213" lon="4.63447">
        <ele>699.02</ele>
        <time>2021-04-08T08:46:42Z</time>
      </trkpt>
      <trkpt lat="45.76214" lon="4.63519">
        <ele>694.69</ele>
        <time>2021-04-08T08:46:48Z</time>
      </trkpt>
      <trkpt lat="45.76216" lon="4.6353">
        <ele>693.25</ele>
        <time>2021-04-08T08:46:49Z</time>
      </trkpt>
      <trkpt lat="45.76224" lon="4.63561">
        <ele>689.88</ele>
        <time>2021-04-08T08:46:52Z</time>
      </trkpt>
      <trkpt lat="45.76229" lon="4.63598">
        <ele>687</ele>
        <time>2021-04-08T08:46:56Z</time>
      </trkpt>
      <trkpt lat="45.7623" lon="4.63619">
        <ele>685.56</ele>
        <time>2021-04-08T08:46:58Z</time>
      </trkpt>
      <trkpt lat="45.76233" lon="4.63676">
        <ele>682.67</ele>
        <time>2021-04-08T08:47:03Z</time>
      </trkpt>
      <trkpt lat="45.76236" lon="4.63714">
        <ele>678.83</ele>
        <time>2021-04-08T08:47:06Z</time>
      </trkpt>
      <trkpt lat="45.76238" lon="4.63725">
        <ele>677.39</ele>
        <time>2021-04-08T08:47:07Z</time>
      </trkpt>
      <trkpt lat="45.76246" lon="4.63759">
        <ele>674.02</ele>
        <time>2021-04-08T08:47:10Z</time>
      </trkpt>
      <trkpt lat="45.76249" lon="4.63777">
        <ele>671.14</ele>
        <time>2021-04-08T08:47:12Z</time>
      </trkpt>
      <trkpt lat="45.76253" lon="4.63785">
        <ele>669.22</ele>
        <time>2021-04-08T08:47:13Z</time>
      </trkpt>
      <trkpt lat="45.7626" lon="4.63804">
        <ele>665.37</ele>
        <time>2021-04-08T08:47:15Z</time>
      </trkpt>
      <trkpt lat="45.76269" lon="4.63829">
        <ele>661.52</ele>
        <time>2021-04-08T08:47:18Z</time>
      </trkpt>
      <trkpt lat="45.76273" lon="4.63837">
        <ele>660.56</ele>
        <time>2021-04-08T08:47:19Z</time>
      </trkpt>
      <trkpt lat="45.76278" lon="4.63844">
        <ele>660.08</ele>
        <time>2021-04-08T08:47:20Z</time>
      </trkpt>
      <trkpt lat="45.76293" lon="4.63872">
        <ele>657.2</ele>
        <time>2021-04-08T08:47:23Z</time>
      </trkpt>
      <trkpt lat="45.76302" lon="4.63895">
        <ele>652.87</ele>
        <time>2021-04-08T08:47:25Z</time>
      </trkpt>
      <trkpt lat="45.76305" lon="4.63907">
        <ele>652.39</ele>
        <time>2021-04-08T08:47:26Z</time>
      </trkpt>
      <trkpt lat="45.76307" lon="4.6392">
        <ele>651.43</ele>
        <time>2021-04-08T08:47:27Z</time>
      </trkpt>
      <trkpt lat="45.76308" lon="4.63934">
        <ele>650.47</ele>
        <time>2021-04-08T08:47:28Z</time>
      </trkpt>
      <trkpt lat="45.76309" lon="4.63963">
        <ele>646.62</ele>
        <time>2021-04-08T08:47:31Z</time>
      </trkpt>
      <trkpt lat="45.76309" lon="4.63975">
        <ele>642.78</ele>
        <time>2021-04-08T08:47:33Z</time>
      </trkpt>
      <trkpt lat="45.76311" lon="4.6398">
        <ele>638.45</ele>
        <time>2021-04-08T08:47:35Z</time>
      </trkpt>
      <trkpt lat="45.76311" lon="4.63985">
        <ele>635.57</ele>
        <time>2021-04-08T08:47:37Z</time>
      </trkpt>
      <trkpt lat="45.76315" lon="4.63987">
        <ele>631.72</ele>
        <time>2021-04-08T08:47:40Z</time>
      </trkpt>
      <trkpt lat="45.76316" lon="4.63987">
        <ele>628.36</ele>
        <time>2021-04-08T08:47:42Z</time>
      </trkpt>
      <trkpt lat="45.76321" lon="4.63986">
        <ele>624.9</ele>
      </trkpt>
      <trkpt lat="45.76319" lon="4.63987">
        <ele>624.3</ele>
      </trkpt>
      <trkpt lat="45.76319" lon="4.63987">
        <ele>624.3</ele>
      </trkpt>
      <trkpt lat="45.76322" lon="4.64011">
        <ele>620.5</ele>
      </trkpt>
      <trkpt lat="45.76322" lon="4.64011">
        <ele>620.5</ele>
      </trkpt>
      <trkpt lat="45.76334" lon="4.64054">
        <ele>615.7</ele>
      </trkpt>
      <trkpt lat="45.76334" lon="4.64054">
        <ele>615.7</ele>
      </trkpt>
      <trkpt lat="45.76342" lon="4.6409">
        <ele>611.3</ele>
      </trkpt>
      <trkpt lat="45.76342" lon="4.6409">
        <ele>611.3</ele>
      </trkpt>
      <trkpt lat="45.76346" lon="4.64114">
        <ele>607.4</ele>
      </trkpt>
      <trkpt lat="45.76346" lon="4.64114">
        <ele>607.4</ele>
      </trkpt>
      <trkpt lat="45.76348" lon="4.6414">
        <ele>603.1</ele>
      </trkpt>
      <trkpt lat="45.76348" lon="4.6414">
        <ele>603.1</ele>
      </trkpt>
      <trkpt lat="45.76349" lon="4.64144">
        <ele>602.3</ele>
      </trkpt>
      <trkpt lat="45.76349" lon="4.64144">
        <ele>602.3</ele>
      </trkpt>
      <trkpt lat="45.76366" lon="4.64191">
        <ele>597.9</ele>
      </trkpt>
      <trkpt lat="45.76366" lon="4.64191">
        <ele>597.9</ele>
      </trkpt>
      <trkpt lat="45.76388" lon="4.64229">
        <ele>595.2</ele>
      </trkpt>
      <trkpt lat="45.76388" lon="4.64229">
        <ele>595.2</ele>
      </trkpt>
      <trkpt lat="45.7639" lon="4.64241">
        <ele>593.2</ele>
      </trkpt>
      <trkpt lat="45.7639" lon="4.64241">
        <ele>593.2</ele>
      </trkpt>
      <trkpt lat="45.7639" lon="4.6426">
        <ele>588.5</ele>
      </trkpt>
      <trkpt lat="45.7639" lon="4.6426">
        <ele>588.5</ele>
      </trkpt>
      <trkpt lat="45.76393" lon="4.64269">
        <ele>586.5</ele>
      </trkpt>
      <trkpt lat="45.76393" lon="4.64269">
        <ele>586.5</ele>
      </trkpt>
      <trkpt lat="45.76408" lon="4.64283">
        <ele>585.5</ele>
      </trkpt>
      <trkpt lat="45.76408" lon="4.64283">
        <ele>585.5</ele>
      </trkpt>
      <trkpt lat="45.76431" lon="4.64297">
        <ele>583</ele>
      </trkpt>
      <trkpt lat="45.76431" lon="4.64297">
        <ele>583</ele>
      </trkpt>
      <trkpt lat="45.76448" lon="4.64312">
        <ele>578.8</ele>
      </trkpt>
      <trkpt lat="45.76448" lon="4.64312">
        <ele>578.8</ele>
      </trkpt>
      <trkpt lat="45.76467" lon="4.64332">
        <ele>573.1</ele>
      </trkpt>
      <trkpt lat="45.76467" lon="4.64332">
        <ele>573.1</ele>
      </trkpt>
      <trkpt lat="45.76493" lon="4.64344">
        <ele>569.7</ele>
      </trkpt>
      <trkpt lat="45.76493" lon="4.64344">
        <ele>569.7</ele>
      </trkpt>
      <trkpt lat="45.76506" lon="4.64349">
        <ele>567.2</ele>
      </trkpt>
      <trkpt lat="45.76506" lon="4.64349">
        <ele>567.2</ele>
      </trkpt>
      <trkpt lat="45.76527" lon="4.64369">
        <ele>559.7</ele>
      </trkpt>
      <trkpt lat="45.76527" lon="4.64369">
        <ele>559.7</ele>
      </trkpt>
      <trkpt lat="45.76528" lon="4.64389">
        <ele>554.5</ele>
      </trkpt>
      <trkpt lat="45.76528" lon="4.64389">
        <ele>554.5</ele>
      </trkpt>
      <trkpt lat="45.76543" lon="4.64423">
        <ele>546.4</ele>
      </trkpt>
      <trkpt lat="45.76543" lon="4.64423">
        <ele>546.4</ele>
      </trkpt>
      <trkpt lat="45.76552" lon="4.64457">
        <ele>540.6</ele>
      </trkpt>
      <trkpt lat="45.76552" lon="4.64457">
        <ele>540.6</ele>
      </trkpt>
      <trkpt lat="45.76568" lon="4.64531">
        <ele>531.6</ele>
      </trkpt>
      <trkpt lat="45.76568" lon="4.64531">
        <ele>531.6</ele>
      </trkpt>
      <trkpt lat="45.76585" lon="4.64587">
        <ele>527.8</ele>
      </trkpt>
      <trkpt lat="45.76585" lon="4.64587">
        <ele>527.8</ele>
      </trkpt>
      <trkpt lat="45.76605" lon="4.6464">
        <ele>524.3</ele>
      </trkpt>
      <trkpt lat="45.76605" lon="4.6464">
        <ele>524.3</ele>
      </trkpt>
      <trkpt lat="45.76615" lon="4.64662">
        <ele>523</ele>
      </trkpt>
      <trkpt lat="45.76615" lon="4.64662">
        <ele>523</ele>
      </trkpt>
      <trkpt lat="45.76619" lon="4.64703">
        <ele>519.2</ele>
      </trkpt>
      <trkpt lat="45.76619" lon="4.64703">
        <ele>519.2</ele>
      </trkpt>
      <trkpt lat="45.76624" lon="4.64728">
        <ele>517.2</ele>
      </trkpt>
      <trkpt lat="45.76624" lon="4.64728">
        <ele>517.2</ele>
      </trkpt>
      <trkpt lat="45.76632" lon="4.64745">
        <ele>516.5</ele>
      </trkpt>
      <trkpt lat="45.76632" lon="4.64745">
        <ele>516.5</ele>
      </trkpt>
      <trkpt lat="45.76638" lon="4.64774">
        <ele>514.4</ele>
      </trkpt>
      <trkpt lat="45.76638" lon="4.64774">
        <ele>514.4</ele>
      </trkpt>
      <trkpt lat="45.76641" lon="4.64815">
        <ele>510.7</ele>
      </trkpt>
      <trkpt lat="45.76641" lon="4.64815">
        <ele>510.7</ele>
      </trkpt>
      <trkpt lat="45.76645" lon="4.64874">
        <ele>503.5</ele>
      </trkpt>
      <trkpt lat="45.76645" lon="4.64874">
        <ele>503.5</ele>
      </trkpt>
      <trkpt lat="45.76648" lon="4.64935">
        <ele>495.7</ele>
      </trkpt>
      <trkpt lat="45.76648" lon="4.64935">
        <ele>495.7</ele>
      </trkpt>
      <trkpt lat="45.76651" lon="4.64989">
        <ele>489.4</ele>
      </trkpt>
      <trkpt lat="45.76651" lon="4.64989">
        <ele>489.4</ele>
      </trkpt>
      <trkpt lat="45.76653" lon="4.65016">
        <ele>487.2</ele>
      </trkpt>
      <trkpt lat="45.76653" lon="4.65016">
        <ele>487.2</ele>
      </trkpt>
      <trkpt lat="45.76657" lon="4.65054">
        <ele>484.9</ele>
      </trkpt>
      <trkpt lat="45.76657" lon="4.65054">
        <ele>484.9</ele>
      </trkpt>
      <trkpt lat="45.7666" lon="4.65096">
        <ele>482.6</ele>
      </trkpt>
      <trkpt lat="45.7666" lon="4.65096">
        <ele>482.6</ele>
      </trkpt>
      <trkpt lat="45.76667" lon="4.6518">
        <ele>479.5</ele>
      </trkpt>
      <trkpt lat="45.76667" lon="4.6518">
        <ele>479.5</ele>
      </trkpt>
      <trkpt lat="45.76673" lon="4.6532">
        <ele>475.9</ele>
      </trkpt>
      <trkpt lat="45.76673" lon="4.6532">
        <ele>475.9</ele>
      </trkpt>
      <trkpt lat="45.76668" lon="4.65355">
        <ele>474.8</ele>
      </trkpt>
      <trkpt lat="45.76668" lon="4.65355">
        <ele>474.8</ele>
      </trkpt>
      <trkpt lat="45.76655" lon="4.65416">
        <ele>472.3</ele>
      </trkpt>
      <trkpt lat="45.76655" lon="4.65416">
        <ele>472.3</ele>
      </trkpt>
      <trkpt lat="45.76639" lon="4.65474">
        <ele>470</ele>
      </trkpt>
      <trkpt lat="45.76639" lon="4.65474">
        <ele>470</ele>
      </trkpt>
      <trkpt lat="45.76638" lon="4.65476">
        <ele>474.55</ele>
        <time>2021-04-08T08:50:23Z</time>
      </trkpt>
      <trkpt lat="45.76625" lon="4.65517">
        <ele>471.18</ele>
        <time>2021-04-08T08:50:29Z</time>
      </trkpt>
      <trkpt lat="45.76604" lon="4.65549">
        <ele>471.18</ele>
        <time>2021-04-08T08:50:41Z</time>
      </trkpt>
      <trkpt lat="45.76608" lon="4.65532">
        <ele>471.18</ele>
        <time>2021-04-08T08:50:50Z</time>
      </trkpt>
      <trkpt lat="45.76607" lon="4.65534">
        <ele>471.18</ele>
        <time>2021-04-08T08:50:51Z</time>
      </trkpt>
      <trkpt lat="45.76605" lon="4.65537">
        <ele>471.18</ele>
        <time>2021-04-08T08:50:52Z</time>
      </trkpt>
      <trkpt lat="45.76604" lon="4.65539">
        <ele>471.18</ele>
        <time>2021-04-08T08:50:53Z</time>
      </trkpt>
      <trkpt lat="45.76602" lon="4.65541">
        <ele>471.18</ele>
        <time>2021-04-08T08:50:54Z</time>
      </trkpt>
      <trkpt lat="45.766" lon="4.65543">
        <ele>471.18</ele>
        <time>2021-04-08T08:50:55Z</time>
      </trkpt>
      <trkpt lat="45.76598" lon="4.65545">
        <ele>471.66</ele>
        <time>2021-04-08T08:50:56Z</time>
      </trkpt>
      <trkpt lat="45.76597" lon="4.65547">
        <ele>471.66</ele>
        <time>2021-04-08T08:50:57Z</time>
      </trkpt>
      <trkpt lat="45.7657" lon="4.65585">
        <ele>471.66</ele>
        <time>2021-04-08T08:51:12Z</time>
      </trkpt>
      <trkpt lat="45.76552" lon="4.65618">
        <ele>472.14</ele>
        <time>2021-04-08T08:51:25Z</time>
      </trkpt>
      <trkpt lat="45.76524" lon="4.65676">
        <ele>470.7</ele>
        <time>2021-04-08T08:51:40Z</time>
      </trkpt>
      <trkpt lat="45.76496" lon="4.65748">
        <ele>468.78</ele>
        <time>2021-04-08T08:51:48Z</time>
      </trkpt>
      <trkpt lat="45.7649" lon="4.6576">
        <ele>468.3</ele>
        <time>2021-04-08T08:51:49Z</time>
      </trkpt>
      <trkpt lat="45.76447" lon="4.65819">
        <ele>464.93</ele>
        <time>2021-04-08T08:51:54Z</time>
      </trkpt>
      <trkpt lat="45.76416" lon="4.65862">
        <ele>461.57</ele>
        <time>2021-04-08T08:51:57Z</time>
      </trkpt>
      <trkpt lat="45.76384" lon="4.65906">
        <ele>456.76</ele>
        <time>2021-04-08T08:52:00Z</time>
      </trkpt>
      <trkpt lat="45.76363" lon="4.65936">
        <ele>453.4</ele>
        <time>2021-04-08T08:52:02Z</time>
      </trkpt>
      <trkpt lat="45.76347" lon="4.65957">
        <ele>449.07</ele>
        <time>2021-04-08T08:52:04Z</time>
      </trkpt>
      <trkpt lat="45.76335" lon="4.65972">
        <ele>443.79</ele>
        <time>2021-04-08T08:52:06Z</time>
      </trkpt>
      <trkpt lat="45.76326" lon="4.65982">
        <ele>438.98</ele>
        <time>2021-04-08T08:52:08Z</time>
      </trkpt>
      <trkpt lat="45.76322" lon="4.65982">
        <ele>437.06</ele>
        <time>2021-04-08T08:52:09Z</time>
      </trkpt>
      <trkpt lat="45.76317" lon="4.65981">
        <ele>434.65</ele>
        <time>2021-04-08T08:52:10Z</time>
      </trkpt>
      <trkpt lat="45.76312" lon="4.65978">
        <ele>432.73</ele>
        <time>2021-04-08T08:52:11Z</time>
      </trkpt>
      <trkpt lat="45.76309" lon="4.65974">
        <ele>431.77</ele>
        <time>2021-04-08T08:52:12Z</time>
      </trkpt>
      <trkpt lat="45.76306" lon="4.65969">
        <ele>430.81</ele>
        <time>2021-04-08T08:52:13Z</time>
      </trkpt>
      <trkpt lat="45.76293" lon="4.65952">
        <ele>427.44</ele>
        <time>2021-04-08T08:52:17Z</time>
      </trkpt>
      <trkpt lat="45.76278" lon="4.6593">
        <ele>426</ele>
        <time>2021-04-08T08:52:21Z</time>
      </trkpt>
      <trkpt lat="45.7627" lon="4.65918">
        <ele>425.52</ele>
        <time>2021-04-08T08:52:23Z</time>
      </trkpt>
      <trkpt lat="45.76267" lon="4.65911">
        <ele>425.52</ele>
        <time>2021-04-08T08:52:24Z</time>
      </trkpt>
      <trkpt lat="45.76245" lon="4.65851">
        <ele>422.16</ele>
        <time>2021-04-08T08:52:33Z</time>
      </trkpt>
      <trkpt lat="45.76227" lon="4.65808">
        <ele>419.75</ele>
        <time>2021-04-08T08:52:43Z</time>
      </trkpt>
      <trkpt lat="45.76223" lon="4.65805">
        <ele>419.27</ele>
        <time>2021-04-08T08:52:44Z</time>
      </trkpt>
      <trkpt lat="45.76218" lon="4.65806">
        <ele>419.27</ele>
        <time>2021-04-08T08:52:46Z</time>
      </trkpt>
      <trkpt lat="45.76219" lon="4.65809">
        <ele>419.27</ele>
        <time>2021-04-08T08:52:47Z</time>
      </trkpt>
      <trkpt lat="45.7622" lon="4.65811">
        <ele>419.27</ele>
        <time>2021-04-08T08:52:48Z</time>
      </trkpt>
      <trkpt lat="45.76221" lon="4.65812">
        <ele>419.27</ele>
        <time>2021-04-08T08:52:49Z</time>
      </trkpt>
      <trkpt lat="45.76221" lon="4.65811">
        <ele>419.27</ele>
        <time>2021-04-08T08:52:50Z</time>
      </trkpt>
      <trkpt lat="45.76219" lon="4.65816">
        <ele>419.27</ele>
        <time>2021-04-08T08:52:52Z</time>
      </trkpt>
    </trkseg>
  </trk>
</gpx>